createdAt,value
2022-09-03T00:01:27.208Z,20.97
2022-09-03T00:03:56.272Z,20.96
2022-09-03T00:06:22.756Z,20.95
2022-09-03T00:08:49.176Z,20.93
2022-09-03T00:11:17.637Z,20.91
2022-09-03T00:13:43.990Z,20.90
2022-09-03T00:16:11.962Z,20.88
2022-09-03T00:18:38.303Z,20.87
2022-09-03T00:21:04.695Z,20.87
2022-09-03T00:23:30.999Z,20.85
2022-09-03T00:25:57.425Z,20.84
2022-09-03T00:28:24.040Z,20.82
2022-09-03T00:30:51.040Z,20.80
2022-09-03T00:33:17.432Z,20.78
2022-09-03T00:35:43.715Z,20.78
2022-09-03T00:38:10.000Z,20.76
2022-09-03T00:40:36.587Z,20.75
2022-09-03T00:43:03.012Z,20.74
2022-09-03T00:45:29.408Z,20.72
2022-09-03T00:47:55.660Z,20.71
2022-09-03T00:50:21.929Z,20.70
2022-09-03T00:52:48.335Z,20.69
2022-09-03T00:55:14.660Z,20.68
2022-09-03T00:57:40.890Z,20.66
2022-09-03T01:00:07.605Z,20.65
2022-09-03T01:02:34.686Z,20.64
2022-09-03T01:05:01.221Z,20.62
2022-09-03T01:07:28.000Z,20.60
2022-09-03T01:09:57.532Z,20.59
2022-09-03T01:12:23.799Z,20.58
2022-09-03T01:14:50.137Z,20.56
2022-09-03T01:17:16.427Z,20.53
2022-09-03T01:19:42.715Z,20.51
2022-09-03T01:22:09.586Z,20.49
2022-09-03T01:24:36.346Z,20.48
2022-09-03T01:27:02.669Z,20.46
2022-09-03T01:29:28.941Z,20.45
2022-09-03T01:31:55.810Z,20.43
2022-09-03T01:34:22.064Z,20.41
2022-09-03T01:36:48.368Z,20.39
2022-09-03T01:39:14.622Z,20.36
2022-09-03T01:41:41.746Z,20.36
2022-09-03T01:44:08.006Z,20.35
2022-09-03T01:46:34.380Z,20.34
2022-09-03T01:49:03.303Z,20.32
2022-09-03T01:51:29.746Z,20.33
2022-09-03T01:53:56.391Z,20.29
2022-09-03T01:56:22.805Z,20.28
2022-09-03T01:58:49.221Z,20.25
2022-09-03T02:01:16.481Z,20.24
2022-09-03T02:03:44.611Z,20.21
2022-09-03T02:06:12.940Z,20.21
2022-09-03T02:08:39.933Z,20.19
2022-09-03T02:11:06.220Z,20.18
2022-09-03T02:13:32.483Z,20.17
2022-09-03T02:15:58.811Z,20.16
2022-09-03T02:18:26.059Z,20.15
2022-09-03T02:20:52.483Z,20.14
2022-09-03T02:23:18.762Z,20.13
2022-09-03T02:25:51.531Z,20.12
2022-09-03T02:28:18.000Z,20.09
2022-09-03T02:30:44.554Z,20.08
2022-09-03T02:33:10.968Z,20.08
2022-09-03T02:35:37.275Z,20.07
2022-09-03T02:38:03.522Z,20.05
2022-09-03T02:40:30.023Z,20.04
2022-09-03T02:42:56.388Z,20.02
2022-09-03T02:45:22.682Z,20.01
2022-09-03T02:47:49.083Z,19.99
2022-09-03T02:50:15.348Z,19.98
2022-09-03T02:52:41.712Z,19.96
2022-09-03T02:55:08.516Z,19.95
2022-09-03T02:57:34.843Z,19.93
2022-09-03T03:00:01.173Z,19.91
2022-09-03T03:02:27.570Z,19.90
2022-09-03T03:04:53.970Z,19.89
2022-09-03T03:07:20.445Z,19.87
2022-09-03T03:09:46.687Z,19.86
2022-09-03T03:12:13.579Z,19.84
2022-09-03T03:14:39.818Z,19.82
2022-09-03T03:17:06.158Z,19.81
2022-09-03T03:19:32.544Z,19.78
2022-09-03T03:21:58.871Z,19.78
2022-09-03T03:24:25.300Z,19.76
2022-09-03T03:26:51.653Z,19.74
2022-09-03T03:29:17.983Z,19.74
2022-09-03T03:31:44.284Z,19.71
2022-09-03T03:34:10.550Z,19.71
2022-09-03T03:36:37.006Z,19.68
2022-09-03T03:39:03.324Z,19.67
2022-09-03T03:41:29.669Z,19.66
2022-09-03T03:43:56.959Z,19.66
2022-09-03T03:46:23.443Z,19.63
2022-09-03T03:48:50.043Z,19.63
2022-09-03T03:51:18.469Z,19.61
2022-09-03T03:53:44.937Z,19.60
2022-09-03T03:56:13.359Z,19.59
2022-09-03T03:58:39.594Z,19.58
2022-09-03T04:01:06.254Z,19.58
2022-09-03T04:03:32.560Z,19.55
2022-09-03T04:05:59.054Z,19.54
2022-09-03T04:08:25.494Z,19.52
2022-09-03T04:10:52.068Z,19.50
2022-09-03T04:13:18.356Z,19.49
2022-09-03T04:15:44.620Z,19.49
2022-09-03T04:18:13.534Z,19.46
2022-09-03T04:20:40.221Z,19.45
2022-09-03T04:23:06.915Z,19.45
2022-09-03T04:25:36.212Z,19.44
2022-09-03T04:28:02.476Z,19.43
2022-09-03T04:30:28.831Z,19.42
2022-09-03T04:32:55.880Z,19.40
2022-09-03T04:35:22.172Z,19.40
2022-09-03T04:37:48.608Z,19.38
2022-09-03T04:40:14.976Z,19.37
2022-09-03T04:42:41.348Z,19.37
2022-09-03T04:45:07.908Z,19.36
2022-09-03T04:47:34.147Z,19.38
2022-09-03T04:50:00.346Z,19.38
2022-09-03T04:52:26.559Z,19.40
2022-09-03T04:54:53.048Z,19.50
2022-09-03T04:57:19.219Z,19.57
2022-09-03T04:59:45.782Z,19.63
2022-09-03T05:02:12.057Z,19.69
2022-09-03T05:04:38.265Z,19.75
2022-09-03T05:07:05.923Z,19.84
2022-09-03T05:09:32.248Z,19.81
2022-09-03T05:11:58.469Z,19.78
2022-09-03T05:14:24.736Z,19.87
2022-09-03T05:16:52.716Z,20.00
2022-09-03T05:19:19.599Z,20.14
2022-09-03T05:21:45.813Z,20.26
2022-09-03T05:24:12.035Z,20.35
2022-09-03T05:26:38.484Z,20.43
2022-09-03T05:29:04.940Z,20.53
2022-09-03T05:31:31.209Z,20.62
2022-09-03T05:33:57.629Z,20.71
2022-09-03T05:36:23.941Z,20.81
2022-09-03T05:38:50.618Z,20.93
2022-09-03T05:41:17.422Z,21.03
2022-09-03T05:43:45.392Z,21.15
2022-09-03T05:46:11.807Z,21.26
2022-09-03T05:48:38.198Z,21.38
2022-09-03T05:51:04.584Z,21.49
2022-09-03T05:53:30.946Z,21.62
2022-09-03T05:55:57.285Z,21.72
2022-09-03T05:58:23.846Z,21.84
2022-09-03T06:00:50.341Z,21.97
2022-09-03T06:03:16.753Z,22.08
2022-09-03T06:05:43.630Z,22.21
2022-09-03T06:08:12.664Z,22.33
2022-09-03T06:10:41.366Z,22.47
2022-09-03T06:13:07.634Z,22.60
2022-09-03T06:15:33.991Z,22.71
2022-09-03T06:18:04.276Z,22.84
2022-09-03T06:20:35.011Z,22.95
2022-09-03T06:23:03.148Z,23.07
2022-09-03T06:25:29.414Z,23.18
2022-09-03T06:27:55.656Z,23.29
2022-09-03T06:30:21.923Z,23.40
2022-09-03T06:32:48.234Z,23.53
2022-09-03T06:35:14.750Z,23.66
2022-09-03T06:37:41.221Z,23.81
2022-09-03T06:40:07.962Z,23.94
2022-09-03T06:42:34.332Z,24.08
2022-09-03T06:45:00.741Z,24.19
2022-09-03T06:47:27.755Z,24.31
2022-09-03T06:49:54.053Z,24.44
2022-09-03T06:52:20.377Z,24.58
2022-09-03T06:54:46.934Z,24.70
2022-09-03T06:57:13.244Z,24.82
2022-09-03T06:59:40.048Z,24.94
2022-09-03T07:02:06.473Z,25.09
2022-09-03T07:04:33.029Z,25.21
2022-09-03T07:06:59.394Z,25.29
2022-09-03T07:09:25.691Z,25.29
2022-09-03T07:11:52.614Z,25.27
2022-09-03T07:14:19.163Z,25.30
2022-09-03T07:16:45.545Z,25.35
2022-09-03T07:19:12.311Z,25.42
2022-09-03T07:21:38.866Z,25.49
2022-09-03T07:24:05.473Z,25.55
2022-09-03T07:26:31.745Z,25.58
2022-09-03T07:28:58.080Z,25.63
2022-09-03T07:31:24.530Z,25.71
2022-09-03T07:33:50.914Z,25.80
2022-09-03T07:36:17.230Z,25.91
2022-09-03T07:38:43.559Z,26.00
2022-09-03T07:41:09.982Z,26.11
2022-09-03T07:43:36.382Z,26.22
2022-09-03T07:46:03.316Z,26.33
2022-09-03T07:48:37.296Z,26.44
2022-09-03T07:51:04.468Z,26.55
2022-09-03T07:53:30.792Z,26.67
2022-09-03T07:55:57.073Z,26.81
2022-09-03T07:58:23.846Z,26.93
2022-09-03T08:00:50.928Z,27.08
2022-09-03T08:03:17.397Z,27.26
2022-09-03T08:05:44.117Z,27.44
2022-09-03T08:08:10.382Z,27.60
2022-09-03T08:10:41.844Z,27.82
2022-09-03T08:13:08.150Z,28.06
2022-09-03T08:15:34.513Z,28.25
2022-09-03T08:18:03.654Z,28.44
2022-09-03T08:20:32.480Z,28.64
2022-09-03T08:22:59.212Z,28.76
2022-09-03T08:25:29.938Z,28.86
2022-09-03T08:27:56.269Z,28.96
2022-09-03T08:30:22.670Z,29.07
2022-09-03T08:32:48.918Z,29.23
2022-09-03T08:35:15.256Z,29.38
2022-09-03T08:37:41.737Z,29.52
2022-09-03T08:40:08.280Z,29.63
2022-09-03T08:42:37.530Z,29.70
2022-09-03T08:45:04.913Z,29.73
2022-09-03T08:47:31.378Z,29.73
2022-09-03T08:49:57.837Z,29.71
2022-09-03T08:52:24.408Z,29.67
2022-09-03T08:54:50.748Z,29.59
2022-09-03T08:57:17.105Z,29.48
2022-09-03T08:59:43.453Z,29.36
2022-09-03T09:02:09.872Z,29.22
2022-09-03T09:04:36.438Z,29.05
2022-09-03T09:07:02.906Z,28.90
2022-09-03T09:09:29.179Z,28.71
2022-09-03T09:11:55.845Z,28.46
2022-09-03T09:14:22.319Z,28.09
2022-09-03T09:16:48.652Z,27.50
2022-09-03T09:19:14.941Z,27.21
2022-09-03T09:21:41.835Z,27.09
2022-09-03T09:24:09.596Z,27.00
2022-09-03T09:26:35.886Z,26.94
2022-09-03T09:29:03.650Z,26.90
2022-09-03T09:31:30.097Z,26.88
2022-09-03T09:33:56.402Z,26.88
2022-09-03T09:36:22.826Z,26.86
2022-09-03T09:38:49.272Z,26.86
2022-09-03T09:41:15.545Z,26.85
2022-09-03T09:43:41.980Z,26.82
2022-09-03T09:46:08.448Z,26.80
2022-09-03T09:48:34.832Z,26.78
2022-09-03T09:51:01.351Z,26.77
2022-09-03T09:53:27.841Z,26.73
2022-09-03T09:55:55.486Z,26.69
2022-09-03T09:58:21.865Z,26.65
2022-09-03T10:00:48.278Z,26.61
2022-09-03T10:03:14.700Z,26.61
2022-09-03T10:05:41.290Z,26.64
2022-09-03T10:08:07.585Z,26.66
2022-09-03T10:10:33.897Z,26.68
2022-09-03T10:13:00.332Z,26.69
2022-09-03T10:15:26.634Z,26.70
2022-09-03T10:17:52.917Z,26.73
2022-09-03T10:20:19.194Z,26.75
2022-09-03T10:22:56.342Z,26.76
2022-09-03T10:25:23.708Z,26.77
2022-09-03T10:27:50.215Z,26.77
2022-09-03T10:30:17.819Z,26.75
2022-09-03T10:32:48.280Z,26.74
2022-09-03T10:35:15.534Z,26.73
2022-09-03T10:37:41.797Z,26.75
2022-09-03T10:40:08.262Z,26.73
2022-09-03T10:42:35.119Z,26.72
2022-09-03T10:45:01.431Z,26.70
2022-09-03T10:47:27.799Z,26.70
2022-09-03T10:49:54.262Z,26.68
2022-09-03T10:52:20.624Z,26.66
2022-09-03T10:54:46.939Z,26.64
2022-09-03T10:57:14.270Z,26.64
2022-09-03T10:59:40.614Z,26.64
2022-09-03T11:02:06.915Z,26.64
2022-09-03T11:04:37.785Z,26.64
2022-09-03T11:07:04.133Z,26.63
2022-09-03T11:09:30.503Z,26.62
2022-09-03T11:11:56.907Z,26.62
2022-09-03T11:14:23.316Z,26.63
2022-09-03T11:16:49.641Z,26.61
2022-09-03T11:19:15.956Z,26.60
2022-09-03T11:21:42.361Z,26.58
2022-09-03T11:24:08.621Z,26.57
2022-09-03T11:26:34.989Z,26.57
2022-09-03T11:29:01.299Z,26.55
2022-09-03T11:31:27.642Z,26.53
2022-09-03T11:33:54.134Z,26.53
2022-09-03T11:36:20.421Z,26.47
2022-09-03T11:38:46.998Z,26.48
2022-09-03T11:41:13.322Z,26.50
2022-09-03T11:43:39.676Z,26.52
2022-09-03T11:46:06.361Z,26.52
2022-09-03T11:48:32.686Z,26.53
2022-09-03T11:50:58.979Z,26.50
2022-09-03T11:53:25.501Z,26.48
2022-09-03T11:55:52.514Z,26.50
2022-09-03T11:58:19.511Z,26.44
2022-09-03T12:00:45.923Z,26.45
2022-09-03T12:03:12.186Z,26.43
2022-09-03T12:05:38.553Z,26.40
2022-09-03T12:08:08.807Z,26.34
2022-09-03T12:10:35.393Z,26.35
2022-09-03T12:13:02.291Z,26.33
2022-09-03T12:15:28.740Z,26.32
2022-09-03T12:17:55.378Z,26.33
2022-09-03T12:20:21.636Z,26.33
2022-09-03T12:22:47.972Z,26.34
2022-09-03T12:25:14.228Z,26.34
2022-09-03T12:27:40.563Z,26.34
2022-09-03T12:30:06.897Z,26.35
2022-09-03T12:32:33.156Z,26.37
2022-09-03T12:34:59.545Z,26.39
2022-09-03T12:40:12.366Z,26.40
2022-09-03T12:42:38.883Z,26.39
2022-09-03T12:45:05.730Z,26.39
2022-09-03T12:47:36.041Z,26.38
2022-09-03T12:50:03.027Z,26.36
2022-09-03T12:52:29.279Z,26.36
2022-09-03T12:54:55.587Z,26.34
2022-09-03T12:57:22.049Z,26.31
2022-09-03T12:59:48.372Z,26.30
2022-09-03T13:02:14.825Z,26.29
2022-09-03T13:04:41.380Z,26.29
2022-09-03T13:07:07.821Z,26.28
2022-09-03T13:09:34.095Z,26.26
2022-09-03T13:12:00.379Z,26.24
2022-09-03T13:14:26.648Z,26.23
2022-09-03T13:16:53.006Z,26.21
2022-09-03T13:19:19.473Z,26.20
2022-09-03T13:21:45.771Z,26.20
2022-09-03T13:24:12.103Z,26.20
2022-09-03T13:26:38.364Z,26.20
2022-09-03T13:29:04.622Z,26.19
2022-09-03T13:31:30.903Z,26.20
2022-09-03T13:33:57.256Z,26.21
2022-09-03T13:36:23.884Z,26.22
2022-09-03T13:38:50.514Z,26.23
2022-09-03T13:41:16.789Z,26.23
2022-09-03T13:43:43.210Z,26.23
2022-09-03T13:46:09.667Z,26.20
2022-09-03T13:48:35.986Z,26.20
2022-09-03T13:51:03.168Z,26.19
2022-09-03T13:53:29.511Z,26.18
2022-09-03T13:55:55.763Z,26.17
2022-09-03T13:58:22.633Z,26.17
2022-09-03T14:00:49.052Z,26.17
2022-09-03T14:03:16.739Z,26.16
2022-09-03T14:05:43.107Z,26.14
2022-09-03T14:08:09.723Z,26.15
2022-09-03T14:10:36.044Z,26.14
2022-09-03T14:13:02.320Z,26.13
2022-09-03T14:15:28.773Z,26.13
2022-09-03T14:17:55.451Z,26.13
2022-09-03T14:20:21.708Z,26.14
2022-09-03T14:22:48.270Z,26.14
2022-09-03T14:25:14.631Z,26.12
2022-09-03T14:27:41.110Z,26.13
2022-09-03T14:30:07.417Z,26.11
2022-09-03T14:32:37.905Z,26.11
2022-09-03T14:35:07.550Z,26.10
2022-09-03T14:37:33.817Z,26.10
2022-09-03T14:40:00.291Z,26.09
2022-09-03T14:42:29.243Z,26.07
2022-09-03T14:44:55.634Z,26.05
2022-09-03T14:47:22.166Z,26.05
2022-09-03T14:49:49.085Z,26.04
2022-09-03T14:52:15.737Z,26.01
2022-09-03T14:54:42.709Z,26.00
2022-09-03T14:57:12.781Z,25.99
2022-09-03T14:59:39.651Z,25.98
2022-09-03T15:02:05.969Z,25.96
2022-09-03T15:04:32.249Z,25.94
2022-09-03T15:06:58.867Z,25.92
2022-09-03T15:09:25.365Z,25.92
2022-09-03T15:11:52.145Z,25.91
2022-09-03T15:14:21.258Z,25.91
2022-09-03T15:16:48.164Z,25.89
2022-09-03T15:19:14.796Z,25.89
2022-09-03T15:21:41.080Z,25.89
2022-09-03T15:24:07.392Z,25.88
2022-09-03T15:26:33.777Z,25.88
2022-09-03T15:29:00.141Z,25.87
2022-09-03T15:31:27.277Z,25.86
2022-09-03T15:33:53.579Z,25.85
2022-09-03T15:36:19.985Z,25.83
2022-09-03T15:38:46.355Z,25.83
2022-09-03T15:41:13.226Z,25.81
2022-09-03T15:43:39.505Z,25.79
2022-09-03T15:46:05.870Z,25.77
2022-09-03T15:48:32.252Z,25.76
2022-09-03T15:50:58.753Z,25.74
2022-09-03T15:53:26.773Z,25.73
2022-09-03T15:55:53.065Z,25.71
2022-09-03T15:58:19.388Z,25.69
2022-09-03T16:00:47.171Z,25.68
2022-09-03T16:03:13.550Z,25.67
2022-09-03T16:05:39.894Z,25.64
2022-09-03T16:08:06.249Z,25.64
2022-09-03T16:10:32.683Z,25.61
2022-09-03T16:12:58.974Z,25.59
2022-09-03T16:15:25.265Z,25.58
2022-09-03T16:17:51.590Z,25.58
2022-09-03T16:20:18.009Z,25.55
2022-09-03T16:22:44.351Z,25.54
2022-09-03T16:25:10.709Z,25.53
2022-09-03T16:27:37.029Z,25.50
2022-09-03T16:30:03.291Z,25.48
2022-09-03T16:32:29.605Z,25.48
2022-09-03T16:34:55.912Z,25.46
2022-09-03T16:37:22.220Z,25.44
2022-09-03T16:39:48.901Z,25.42
2022-09-03T16:42:15.216Z,25.40
2022-09-03T16:44:41.657Z,25.39
2022-09-03T16:47:07.955Z,25.37
2022-09-03T16:49:37.976Z,25.35
2022-09-03T16:52:04.909Z,25.33
2022-09-03T16:54:33.698Z,25.31
2022-09-03T16:56:59.977Z,25.29
2022-09-03T16:59:26.293Z,25.27
2022-09-03T17:01:52.940Z,25.17
2022-09-03T17:04:19.417Z,25.24
2022-09-03T17:06:45.929Z,25.21
2022-09-03T17:09:12.271Z,25.20
2022-09-03T17:11:38.652Z,25.18
2022-09-03T17:14:04.992Z,25.17
2022-09-03T17:16:33.375Z,25.15
2022-09-03T17:19:00.141Z,25.15
2022-09-03T17:21:28.520Z,25.12
2022-09-03T17:23:54.787Z,25.10
2022-09-03T17:26:21.488Z,25.09
2022-09-03T17:28:48.091Z,25.06
2022-09-03T17:31:14.438Z,25.05
2022-09-03T17:33:40.871Z,25.02
2022-09-03T17:36:07.300Z,24.98
2022-09-03T17:38:33.776Z,24.97
2022-09-03T17:41:00.107Z,24.95
2022-09-03T17:43:26.539Z,24.93
2022-09-03T17:45:52.964Z,24.90
2022-09-03T17:48:19.313Z,24.88
2022-09-03T17:50:45.597Z,24.87
2022-09-03T17:53:12.010Z,24.84
2022-09-03T17:55:38.440Z,24.81
2022-09-03T17:58:04.681Z,24.79
2022-09-03T18:00:31.039Z,24.77
2022-09-03T18:02:57.372Z,24.75
2022-09-03T18:05:23.776Z,24.74
2022-09-03T18:07:50.081Z,24.71
2022-09-03T18:10:16.455Z,24.70
2022-09-03T18:12:42.963Z,24.68
2022-09-03T18:15:20.365Z,24.65
2022-09-03T18:17:46.787Z,24.63
2022-09-03T18:20:13.341Z,24.59
2022-09-03T18:22:39.779Z,24.57
2022-09-03T18:25:06.236Z,24.55
2022-09-03T18:27:32.573Z,24.52
2022-09-03T18:29:58.972Z,24.51
2022-09-03T18:32:25.225Z,24.49
2022-09-03T18:34:51.961Z,24.49
2022-09-03T18:37:18.277Z,24.47
2022-09-03T18:39:45.310Z,24.44
2022-09-03T18:42:11.689Z,24.44
2022-09-03T18:44:38.152Z,24.42
2022-09-03T18:48:02.973Z,24.40
2022-09-03T18:49:51.153Z,24.38
2022-09-03T18:52:17.587Z,24.36
2022-09-03T18:55:06.367Z,24.35
2022-09-03T18:57:30.809Z,24.32
2022-09-03T18:59:57.138Z,24.30
2022-09-03T19:02:23.539Z,24.29
2022-09-03T19:04:49.924Z,24.27
2022-09-03T19:07:16.230Z,24.25
2022-09-03T19:09:43.169Z,24.24
2022-09-03T19:12:09.575Z,24.23
2022-09-03T19:14:35.895Z,24.21
2022-09-03T19:17:02.168Z,24.19
2022-09-03T19:19:28.897Z,24.18
2022-09-03T19:21:59.599Z,24.17
2022-09-03T19:24:26.226Z,24.14
2022-09-03T19:26:53.058Z,24.14
2022-09-03T19:29:20.031Z,24.12
2022-09-03T19:31:46.430Z,24.10
2022-09-03T19:34:12.793Z,24.10
2022-09-03T19:36:39.073Z,24.09
2022-09-03T19:39:05.388Z,24.07
2022-09-03T19:41:32.889Z,24.06
2022-09-03T19:43:59.285Z,24.04
2022-09-03T19:46:26.154Z,24.03
2022-09-03T19:48:52.903Z,24.01
2022-09-03T19:51:20.178Z,24.00
2022-09-03T19:53:46.544Z,23.98
2022-09-03T19:56:13.035Z,23.97
2022-09-03T19:58:43.688Z,23.95
2022-09-03T20:01:10.524Z,23.93
2022-09-03T20:03:36.920Z,23.92
2022-09-03T20:06:05.541Z,23.91
2022-09-03T20:08:35.606Z,23.90
2022-09-03T20:11:01.962Z,23.89
2022-09-03T20:13:30.306Z,23.87
2022-09-03T20:15:56.971Z,23.86
2022-09-03T20:18:23.405Z,23.86
2022-09-03T20:20:50.211Z,23.85
2022-09-03T20:23:16.515Z,23.84
2022-09-03T20:25:43.278Z,23.81
2022-09-03T20:28:09.549Z,23.82
2022-09-03T20:30:35.861Z,23.80
2022-09-03T20:33:03.478Z,23.79
2022-09-03T20:35:32.102Z,23.77
2022-09-03T20:37:59.257Z,23.76
2022-09-03T20:40:29.014Z,23.75
2022-09-03T20:42:55.840Z,23.74
2022-09-03T20:45:22.180Z,23.71
2022-09-03T20:47:48.502Z,23.72
2022-09-03T20:50:14.847Z,23.68
2022-09-03T20:52:41.541Z,23.67
2022-09-03T20:55:10.814Z,23.66
2022-09-03T20:57:37.122Z,23.65
2022-09-03T21:00:03.511Z,23.63
2022-09-03T21:02:29.947Z,23.62
2022-09-03T21:04:56.326Z,23.60
2022-09-03T21:07:22.847Z,23.60
2022-09-03T21:09:52.900Z,23.58
2022-09-03T21:12:19.902Z,23.57
2022-09-03T21:14:46.265Z,23.54
2022-09-03T21:17:18.471Z,23.54
2022-09-03T21:19:46.163Z,23.54
2022-09-03T21:22:12.716Z,23.52
2022-09-03T21:24:39.017Z,23.49
2022-09-03T21:27:05.510Z,23.42
2022-09-03T21:29:31.893Z,23.36
2022-09-03T21:31:59.125Z,23.30
2022-09-03T21:34:25.402Z,23.25
2022-09-03T21:36:51.721Z,23.21
2022-09-03T21:39:18.076Z,23.16
2022-09-03T21:41:44.591Z,23.13
2022-09-03T21:44:10.858Z,23.08
2022-09-03T21:46:37.715Z,23.02
2022-09-03T21:49:04.470Z,22.98
2022-09-03T21:51:31.775Z,22.94
2022-09-03T21:54:01.520Z,22.90
2022-09-03T21:56:27.812Z,22.86
2022-09-03T21:58:54.900Z,22.83
2022-09-03T22:01:21.935Z,22.79
2022-09-03T22:03:48.708Z,22.74
2022-09-03T22:06:15.098Z,22.70
2022-09-03T22:08:44.038Z,22.67
2022-09-03T22:11:10.849Z,22.62
2022-09-03T22:13:37.698Z,22.58
2022-09-03T22:16:04.168Z,22.55
2022-09-03T22:18:30.941Z,22.51
2022-09-03T22:20:57.550Z,22.48
2022-09-03T22:23:24.460Z,22.43
2022-09-03T22:25:50.792Z,22.39
2022-09-03T22:28:17.470Z,22.34
2022-09-03T22:30:43.860Z,22.31
2022-09-03T22:33:10.194Z,22.27
2022-09-03T22:35:36.700Z,22.23
2022-09-03T22:38:03.378Z,22.20
2022-09-03T22:40:29.856Z,22.17
2022-09-03T22:42:56.437Z,22.16
2022-09-03T22:45:22.763Z,22.13
2022-09-03T22:47:49.059Z,22.10
2022-09-03T22:50:15.373Z,22.06
2022-09-03T22:52:41.914Z,22.05
2022-09-03T22:55:09.265Z,22.02
2022-09-03T22:57:36.071Z,21.98
2022-09-03T23:00:02.755Z,21.96
2022-09-03T23:02:29.172Z,21.94
2022-09-03T23:04:55.452Z,21.90
2022-09-03T23:07:22.483Z,21.86
2022-09-03T23:09:49.517Z,21.83
2022-09-03T23:12:15.992Z,21.80
2022-09-03T23:14:42.599Z,21.77
2022-09-03T23:17:08.917Z,21.73
2022-09-03T23:19:36.335Z,21.69
2022-09-03T23:22:03.143Z,21.55
2022-09-03T23:24:29.565Z,21.63
2022-09-03T23:26:56.195Z,21.61
2022-09-03T23:29:23.197Z,21.58
2022-09-03T23:31:50.168Z,21.56
2022-09-03T23:34:17.338Z,21.53
2022-09-03T23:37:05.892Z,21.49
2022-09-03T23:39:30.039Z,21.48
2022-09-03T23:41:56.740Z,21.47
2022-09-03T23:44:24.060Z,21.44
2022-09-03T23:46:50.389Z,21.41
2022-09-03T23:49:16.700Z,21.40
2022-09-03T23:51:43.067Z,21.37
2022-09-03T23:54:09.381Z,21.33
2022-09-03T23:56:36.250Z,21.30
2022-09-03T23:59:02.670Z,21.27
